21:51
Airports
History
Links
Donate
Help keep this website running!
PayPal
Bitcoin
This page is community maintained. The information is intended for PC simulator navigation or reference.
Always use approved charts for navigation.
YBR1
R10
R10 (YBR1)
Berserker, Queensland, Australia (4701)
(U)
Lat/Lng:23° 21' 38.88" S / 150° 31' 44.15" E
-23.3608 / 150.528931
Elevation:130'ft / 40mMSL
ID / ICAO:YBR1
Runways:1
Longest:17-35
Asphalt 4,571m / 14,995ft
Nearby Weather21:30 GMT 2017-10-18
Nearby weather at YBRK, Rockhampton located 3.8 nautical miles from YBR1
Altimeter: 30.12
Visibility: 6.2 statute miles
Wind: 10 knots (from 110°)
Temp: 23°c / 73°f
Humidity: 83.2%

METAR: YBRK 182130Z AUTO 11010KT 9999 // BKN022 OVC031 23/20 Q1020

(Powered by phpweather)
Runway 17 / 35
Dimensions:4570.5 x 45.7m 14995' x 150'ft
Surface:Asphalt
Edge Lights:Medium intensity
Runway 17 [A]Runway 35 [B]
Heading:175°TH 355°TH
Lat:
Lng:
23° 20' 25.1"S
150° 31' 37.12"E
23° 22' 52.66"S
150° 31' 51.18"E
ALS:RAILRAIL
User Notes and Comments
23° 21' 38.88" S / 150° 31' 44.15" E
Distance To
Airport ID:
Nearby Airports
(C) Rockhampton 3.8 NM
YBRK ( WX ) WSW 249°
(R) HEDLOW AIRFIELD 10.7 NM
YHEW NNE 25°
4 MILL IRON 10.9 NM
YMIO ENE 77°
4 EMU PARK 19.5 NM
YEMP ENE 68°
(U) Great Keppel Island 28.9 NM
YGKL ENE 65°
4 OLD STATION 36.9 NM
YOSN SSE 149°
4 COMMANCHE 41.3 NM
YCMC W 272°
VFR Chart
Flight Planning at SkyVector.com